createdAt,value
2018-07-28T00:01:16.071Z,22.20
2018-07-28T00:03:44.687Z,22.20
2018-07-28T00:06:13.015Z,22.10
2018-07-28T00:08:41.404Z,22.10
2018-07-28T00:11:09.867Z,22.10
2018-07-28T00:13:38.309Z,22.10
2018-07-28T00:16:06.753Z,22.00
2018-07-28T00:18:35.224Z,22.00
2018-07-28T00:21:03.589Z,22.00
2018-07-28T00:23:31.900Z,21.90
2018-07-28T00:26:05.644Z,21.90
2018-07-28T00:28:33.972Z,21.80
2018-07-28T00:31:02.305Z,21.80
2018-07-28T00:33:30.617Z,21.70
2018-07-28T00:35:58.912Z,21.70
2018-07-28T00:38:27.278Z,21.70
2018-07-28T00:40:55.612Z,21.70
2018-07-28T00:43:23.943Z,21.60
2018-07-28T00:45:52.281Z,21.60
2018-07-28T00:48:20.612Z,21.50
2018-07-28T00:50:48.959Z,21.50
2018-07-28T00:53:17.308Z,21.50
2018-07-28T00:55:45.633Z,21.50
2018-07-28T00:58:14.016Z,21.50
2018-07-28T01:00:42.344Z,21.40
2018-07-28T01:03:10.658Z,21.40
2018-07-28T01:05:39.020Z,21.40
2018-07-28T01:08:07.386Z,21.30
2018-07-28T01:10:35.794Z,21.40
2018-07-28T01:13:04.173Z,21.30
2018-07-28T01:15:32.472Z,21.30
2018-07-28T01:18:01.002Z,21.20
2018-07-28T01:20:29.292Z,21.20
2018-07-28T01:22:57.596Z,21.20
2018-07-28T01:25:25.901Z,21.20
2018-07-28T01:30:27.752Z,21.10
2018-07-28T01:32:56.512Z,21.10
2018-07-28T01:35:24.882Z,21.00
2018-07-28T01:37:53.244Z,21.00
2018-07-28T01:40:21.542Z,20.90
2018-07-28T01:42:49.862Z,20.90
2018-07-28T01:45:18.247Z,20.90
2018-07-28T01:47:46.589Z,20.90
2018-07-28T01:50:14.888Z,20.90
2018-07-28T01:52:43.292Z,20.90
2018-07-28T01:55:11.673Z,20.80
2018-07-28T01:57:40.078Z,20.80
2018-07-28T02:00:09.202Z,20.80
2018-07-28T02:02:37.552Z,20.70
2018-07-28T02:05:07.392Z,20.70
2018-07-28T02:07:35.787Z,20.70
2018-07-28T02:10:04.567Z,20.70
2018-07-28T02:12:32.868Z,20.60
2018-07-28T02:15:01.388Z,20.60
2018-07-28T02:17:29.672Z,20.60
2018-07-28T02:19:57.992Z,20.60
2018-07-28T02:22:26.273Z,20.60
2018-07-28T02:24:54.524Z,20.60
2018-07-28T02:27:22.801Z,20.60
2018-07-28T02:29:51.354Z,20.50
2018-07-28T02:32:19.575Z,20.50
2018-07-28T02:34:47.841Z,20.50
2018-07-28T02:37:16.116Z,20.50
2018-07-28T02:39:44.364Z,20.50
2018-07-28T02:42:12.617Z,20.50
2018-07-28T02:44:40.844Z,20.40
2018-07-28T02:47:09.122Z,20.40
2018-07-28T02:49:37.370Z,20.40
2018-07-28T02:52:05.704Z,20.40
2018-07-28T02:54:34.044Z,20.40
2018-07-28T02:57:02.318Z,20.40
2018-07-28T03:01:58.549Z,20.30
2018-07-28T03:04:26.772Z,20.30
2018-07-28T03:06:55.058Z,20.30
2018-07-28T03:09:23.321Z,20.30
2018-07-28T03:11:51.588Z,20.30
2018-07-28T03:14:19.831Z,20.30
2018-07-28T03:16:48.101Z,20.20
2018-07-28T03:19:16.333Z,20.20
2018-07-28T03:21:44.768Z,20.20
2018-07-28T03:24:13.060Z,20.20
2018-07-28T03:26:41.352Z,20.20
2018-07-28T03:29:09.657Z,20.20
2018-07-28T03:31:37.916Z,20.20
2018-07-28T03:34:06.361Z,20.20
2018-07-28T03:36:34.649Z,20.10
2018-07-28T03:39:02.987Z,20.20
2018-07-28T03:41:31.197Z,20.10
2018-07-28T03:43:59.522Z,20.10
2018-07-28T03:46:28.076Z,20.20
2018-07-28T03:48:56.340Z,20.10
2018-07-28T03:51:24.632Z,20.10
2018-07-28T03:53:52.912Z,20.10
2018-07-28T03:56:21.144Z,20.10
2018-07-28T03:58:49.387Z,20.10
2018-07-28T04:01:17.624Z,20.20
2018-07-28T04:03:45.901Z,20.20
2018-07-28T04:06:14.136Z,20.20
2018-07-28T04:08:42.368Z,20.20
2018-07-28T04:11:10.621Z,20.30
2018-07-28T04:13:38.844Z,20.30
2018-07-28T04:16:07.092Z,20.30
2018-07-28T04:18:35.441Z,20.30
2018-07-28T04:21:03.809Z,20.30
2018-07-28T04:23:32.047Z,20.30
2018-07-28T04:26:00.297Z,20.40
2018-07-28T04:30:56.581Z,20.40
2018-07-28T04:33:24.808Z,20.40
2018-07-28T04:35:53.068Z,20.40
2018-07-28T04:38:21.292Z,20.40
2018-07-28T04:40:49.653Z,20.40
2018-07-28T04:43:17.888Z,20.50
2018-07-28T04:45:52.788Z,20.50
2018-07-28T04:48:21.022Z,20.50
2018-07-28T04:50:49.464Z,20.40
2018-07-28T04:55:45.728Z,20.50
2018-07-28T04:58:13.973Z,20.50
2018-07-28T05:00:42.277Z,20.60
2018-07-28T05:03:10.544Z,20.60
2018-07-28T05:05:38.765Z,20.60
2018-07-28T05:08:07.028Z,20.60
2018-07-28T05:10:35.352Z,20.60
2018-07-28T05:13:03.609Z,20.70
2018-07-28T05:15:31.844Z,20.70
2018-07-28T05:18:00.137Z,20.70
2018-07-28T05:20:28.413Z,20.80
2018-07-28T05:22:56.735Z,20.80
2018-07-28T05:25:24.965Z,20.90
2018-07-28T05:27:53.229Z,20.90
2018-07-28T05:30:21.501Z,21.00
2018-07-28T05:32:49.757Z,21.00
2018-07-28T05:35:18.016Z,21.00
2018-07-28T05:37:46.269Z,21.10
2018-07-28T05:40:14.524Z,21.10
2018-07-28T05:42:42.839Z,21.20
2018-07-28T05:45:11.057Z,21.20
2018-07-28T05:47:39.309Z,21.30
2018-07-28T05:50:08.922Z,21.30
2018-07-28T05:52:37.149Z,21.40
2018-07-28T05:55:05.432Z,21.40
2018-07-28T05:57:33.689Z,21.50
2018-07-28T06:00:01.979Z,21.60
2018-07-28T06:02:30.339Z,21.70
2018-07-28T06:04:58.470Z,21.70
2018-07-28T06:07:26.720Z,21.80
2018-07-28T06:09:54.993Z,21.90
2018-07-28T06:12:23.261Z,22.00
2018-07-28T06:14:51.540Z,22.10
2018-07-28T06:17:19.767Z,22.10
2018-07-28T06:19:47.989Z,22.20
2018-07-28T06:22:16.321Z,22.40
2018-07-28T06:27:19.393Z,22.60
2018-07-28T06:29:47.668Z,22.70
2018-07-28T06:32:15.952Z,22.90
2018-07-28T06:34:44.204Z,23.00
2018-07-28T06:37:12.557Z,23.10
2018-07-28T06:39:40.868Z,23.30
2018-07-28T06:42:09.089Z,23.40
2018-07-28T06:44:37.323Z,23.60
2018-07-28T06:47:05.581Z,23.80
2018-07-28T06:49:33.844Z,23.90
2018-07-28T06:52:02.222Z,24.20
2018-07-28T06:54:30.484Z,24.30
2018-07-28T06:56:58.748Z,24.50
2018-07-28T06:59:26.977Z,24.60
2018-07-28T07:01:55.236Z,24.70
2018-07-28T07:04:23.496Z,24.90
2018-07-28T07:06:51.720Z,25.10
2018-07-28T07:09:19.976Z,25.30
2018-07-28T07:11:48.265Z,25.50
2018-07-28T07:14:16.507Z,25.80
2018-07-28T07:16:44.990Z,26.00
2018-07-28T07:19:13.209Z,26.30
2018-07-28T07:21:41.505Z,26.60
2018-07-28T07:24:10.176Z,26.70
2018-07-28T07:26:38.425Z,26.70
2018-07-28T07:29:06.699Z,26.70
2018-07-28T07:31:35.029Z,26.80
2018-07-28T07:34:03.269Z,26.80
2018-07-28T07:36:31.525Z,26.70
2018-07-28T07:38:59.780Z,26.70
2018-07-28T07:41:28.047Z,26.80
2018-07-28T07:43:56.838Z,26.90
2018-07-28T07:46:25.410Z,26.90
2018-07-28T07:48:53.637Z,27.00
2018-07-28T07:51:22.062Z,27.10
2018-07-28T07:53:50.302Z,27.10
2018-07-28T07:56:18.534Z,27.20
2018-07-28T07:58:46.779Z,27.40
2018-07-28T08:01:15.040Z,27.40
2018-07-28T08:03:43.264Z,27.50
2018-07-28T08:06:11.534Z,27.50
2018-07-28T08:08:39.765Z,27.60
2018-07-28T08:11:08.036Z,27.70
2018-07-28T08:13:36.293Z,27.90
2018-07-28T08:16:04.545Z,27.90
2018-07-28T08:18:32.836Z,28.10
2018-07-28T08:21:01.114Z,28.30
2018-07-28T08:23:29.465Z,28.40
2018-07-28T08:25:57.729Z,28.60
2018-07-28T08:28:25.964Z,28.80
2018-07-28T08:30:54.703Z,29.00
2018-07-28T08:33:22.924Z,29.20
2018-07-28T08:35:51.258Z,29.40
2018-07-28T08:38:19.520Z,29.50
2018-07-28T08:40:47.809Z,29.80
2018-07-28T08:43:16.021Z,29.90
2018-07-28T08:45:44.278Z,30.00
2018-07-28T08:48:12.571Z,30.20
2018-07-28T08:50:40.846Z,30.40
2018-07-28T08:53:09.068Z,30.60
2018-07-28T08:55:37.418Z,30.90
2018-07-28T08:58:05.722Z,31.10
2018-07-28T09:00:33.976Z,31.50
2018-07-28T09:03:02.229Z,32.00
2018-07-28T09:05:30.616Z,32.50
2018-07-28T09:10:26.832Z,33.50
2018-07-28T09:12:55.180Z,33.60
2018-07-28T09:15:23.456Z,33.90
2018-07-28T09:17:51.765Z,34.30
2018-07-28T09:20:19.932Z,34.70
2018-07-28T09:22:48.206Z,34.90
2018-07-28T09:25:16.420Z,35.10
2018-07-28T09:27:44.645Z,35.40
2018-07-28T09:30:13.127Z,35.70
2018-07-28T09:32:41.349Z,36.10
2018-07-28T09:35:09.597Z,36.20
2018-07-28T09:37:37.902Z,36.30
2018-07-28T09:40:06.222Z,36.50
2018-07-28T09:42:34.432Z,36.70
2018-07-28T09:45:02.741Z,37.00
2018-07-28T09:47:30.989Z,37.00
2018-07-28T09:49:59.256Z,37.10
2018-07-28T09:52:27.621Z,37.10
2018-07-28T09:54:55.942Z,37.00
2018-07-28T09:57:24.212Z,36.90
2018-07-28T09:59:52.468Z,36.70
2018-07-28T10:02:20.714Z,36.50
2018-07-28T10:04:48.996Z,36.50
2018-07-28T10:07:17.232Z,36.30
2018-07-28T10:09:45.488Z,36.10
2018-07-28T10:12:13.696Z,35.90
2018-07-28T10:14:41.965Z,36.00
2018-07-28T10:17:10.236Z,35.90
2018-07-28T10:19:38.581Z,35.90
2018-07-28T10:22:06.860Z,35.80
2018-07-28T10:24:35.224Z,35.80
2018-07-28T10:27:03.428Z,35.80
2018-07-28T10:29:31.688Z,35.60
2018-07-28T10:31:59.905Z,35.50
2018-07-28T10:34:28.133Z,35.60
2018-07-28T10:36:56.429Z,35.70
2018-07-28T10:39:24.677Z,35.80
2018-07-28T10:41:52.899Z,35.90
2018-07-28T10:44:21.117Z,35.80
2018-07-28T10:46:49.382Z,35.80
2018-07-28T10:49:17.609Z,35.60
2018-07-28T10:51:45.872Z,35.40
2018-07-28T10:56:42.096Z,34.90
2018-07-28T10:59:10.378Z,35.10
2018-07-28T11:01:38.632Z,35.50
2018-07-28T11:04:07.124Z,36.10
2018-07-28T11:06:35.337Z,36.70
2018-07-28T11:09:03.716Z,37.20
2018-07-28T11:11:31.880Z,37.60
2018-07-28T11:14:00.140Z,37.80
2018-07-28T11:16:28.395Z,37.80
2018-07-28T11:18:56.706Z,38.10
2018-07-28T11:21:24.900Z,38.30
2018-07-28T11:24:01.078Z,38.60
2018-07-28T11:26:29.312Z,39.00
2018-07-28T11:28:57.629Z,39.40
2018-07-28T11:32:38.460Z,39.10
2018-07-28T11:35:18.181Z,38.50
2018-07-28T11:38:05.037Z,37.60
2018-07-28T11:40:45.536Z,37.00
2018-07-28T11:43:25.464Z,36.40
2018-07-28T11:45:53.855Z,35.90
2018-07-28T11:48:22.104Z,35.40
2018-07-28T11:50:50.390Z,35.10
2018-07-28T11:53:18.637Z,34.90
2018-07-28T11:55:47.006Z,35.20
2018-07-28T11:58:15.360Z,35.90
2018-07-28T12:00:43.525Z,36.40
2018-07-28T12:03:11.785Z,36.50
2018-07-28T12:05:40.013Z,36.80
2018-07-28T12:08:08.224Z,37.10
2018-07-28T12:10:36.706Z,37.30
2018-07-28T12:15:33.005Z,37.90
2018-07-28T12:18:01.254Z,38.40
2018-07-28T12:20:29.517Z,39.10
2018-07-28T12:22:57.753Z,39.80
2018-07-28T12:25:26.042Z,40.40
2018-07-28T12:27:54.332Z,40.50
2018-07-28T12:30:22.678Z,40.60
2018-07-28T12:32:50.905Z,40.80
2018-07-28T12:35:19.149Z,40.90
2018-07-28T12:37:47.403Z,41.30
2018-07-28T12:40:15.695Z,41.30
2018-07-28T12:42:43.911Z,41.10
2018-07-28T12:45:12.128Z,41.10
2018-07-28T12:47:40.390Z,41.10
2018-07-28T12:50:09.029Z,41.20
2018-07-28T12:52:37.305Z,41.40
2018-07-28T12:55:05.865Z,41.60
2018-07-28T12:57:34.141Z,42.00
2018-07-28T13:00:02.483Z,42.30
2018-07-28T13:02:30.819Z,42.50
2018-07-28T13:04:59.046Z,42.60
2018-07-28T13:07:28.269Z,42.90
2018-07-28T13:09:56.492Z,42.80
2018-07-28T13:12:25.343Z,42.70
2018-07-28T13:14:53.661Z,42.40
2018-07-28T13:17:22.005Z,42.20
2018-07-28T13:19:50.254Z,41.80
2018-07-28T13:22:18.476Z,41.40
2018-07-28T13:24:46.724Z,40.50
2018-07-28T13:27:14.971Z,39.80
2018-07-28T13:29:43.310Z,38.80
2018-07-28T13:32:11.564Z,38.00
2018-07-28T13:34:39.835Z,37.40
2018-07-28T13:37:08.457Z,36.90
2018-07-28T13:39:36.712Z,36.40
2018-07-28T13:42:05.018Z,35.90
2018-07-28T13:44:33.232Z,35.50
2018-07-28T13:47:01.440Z,35.20
2018-07-28T13:49:29.685Z,34.90
2018-07-28T13:51:57.912Z,34.50
2018-07-28T13:54:26.148Z,34.20
2018-07-28T13:56:54.404Z,33.50
2018-07-28T13:59:22.710Z,32.80
2018-07-28T14:01:50.965Z,32.10
2018-07-28T14:04:19.222Z,31.30
2018-07-28T14:06:47.524Z,30.50
2018-07-28T14:09:15.776Z,29.80
2018-07-28T14:11:44.053Z,29.10
2018-07-28T14:14:12.293Z,28.60
2018-07-28T14:16:40.605Z,27.90
2018-07-28T14:19:08.882Z,27.10
2018-07-28T14:21:37.124Z,26.10
2018-07-28T14:24:05.494Z,25.30
2018-07-28T14:26:33.769Z,24.70
2018-07-28T14:29:02.025Z,24.20
2018-07-28T14:31:30.421Z,23.90
2018-07-28T14:33:58.657Z,23.60
2018-07-28T14:36:26.971Z,23.30
2018-07-28T14:38:55.412Z,23.10
2018-07-28T14:41:23.832Z,22.90
2018-07-28T14:43:52.255Z,22.80
2018-07-28T14:46:20.453Z,22.60
2018-07-28T14:48:48.726Z,22.40
2018-07-28T14:51:17.024Z,22.30
2018-07-28T14:53:45.253Z,22.10
2018-07-28T14:56:13.513Z,22.00
2018-07-28T14:58:41.842Z,21.90
2018-07-28T15:01:10.133Z,21.80
2018-07-28T15:03:38.471Z,21.80
2018-07-28T15:06:06.728Z,21.70
2018-07-28T15:08:35.084Z,21.60
2018-07-28T15:11:03.458Z,21.50
2018-07-28T15:13:31.713Z,21.40
2018-07-28T15:15:59.999Z,21.30
2018-07-28T15:18:28.290Z,21.30
2018-07-28T15:20:56.585Z,21.20
2018-07-28T15:23:24.936Z,21.20
2018-07-28T15:25:53.208Z,21.20
2018-07-28T15:28:21.594Z,21.20
2018-07-28T15:30:49.852Z,21.20
2018-07-28T15:33:18.112Z,21.20
2018-07-28T15:35:46.392Z,21.20
2018-07-28T15:38:14.726Z,21.20
2018-07-28T15:40:42.981Z,21.10
2018-07-28T15:43:11.290Z,21.10
2018-07-28T15:45:39.609Z,21.10
2018-07-28T15:48:08.318Z,21.00
2018-07-28T15:50:36.847Z,21.00
2018-07-28T15:53:05.174Z,21.00
2018-07-28T15:55:33.448Z,21.00
2018-07-28T15:58:01.746Z,21.00
2018-07-28T16:00:30.004Z,20.90
2018-07-28T16:02:58.248Z,20.90
2018-07-28T16:05:26.518Z,20.80
2018-07-28T16:07:54.793Z,20.90
2018-07-28T16:10:23.037Z,20.90
2018-07-28T16:12:51.317Z,20.90
2018-07-28T16:15:19.595Z,20.90
2018-07-28T16:17:47.838Z,20.90
2018-07-28T16:20:16.190Z,21.00
2018-07-28T16:22:44.391Z,21.00
2018-07-28T16:25:12.661Z,21.00
2018-07-28T16:27:41.023Z,21.00
2018-07-28T16:30:09.806Z,21.00
2018-07-28T16:35:06.192Z,21.00
2018-07-28T16:37:34.473Z,21.00
2018-07-28T16:40:02.784Z,21.00
2018-07-28T16:42:31.009Z,21.00
2018-07-28T16:44:59.249Z,21.00
2018-07-28T16:47:27.546Z,20.90
2018-07-28T16:49:55.831Z,21.00
2018-07-28T16:52:24.042Z,20.90
2018-07-28T16:54:52.317Z,20.90
2018-07-28T16:57:20.968Z,20.90
2018-07-28T16:59:49.282Z,20.90
2018-07-28T17:02:17.504Z,20.90
2018-07-28T17:04:45.739Z,20.90
2018-07-28T17:07:14.027Z,20.90
2018-07-28T17:09:42.193Z,20.90
2018-07-28T17:12:10.457Z,21.00
2018-07-28T17:14:38.752Z,21.00
2018-07-28T17:17:06.984Z,21.00
2018-07-28T17:19:35.285Z,21.00
2018-07-28T17:22:03.537Z,21.00
2018-07-28T17:24:31.813Z,21.10
2018-07-28T17:27:00.089Z,21.10
2018-07-28T17:29:28.341Z,21.10
2018-07-28T17:31:56.577Z,21.10
2018-07-28T17:34:24.853Z,21.10
2018-07-28T17:36:53.099Z,21.10
2018-07-28T17:39:21.384Z,21.10
2018-07-28T17:41:49.623Z,21.10
2018-07-28T17:44:17.856Z,21.20
2018-07-28T17:46:46.199Z,21.10
2018-07-28T17:49:14.374Z,21.10
2018-07-28T17:51:42.652Z,21.20
2018-07-28T17:54:10.929Z,21.20
2018-07-28T17:56:39.188Z,21.20
2018-07-28T17:59:07.438Z,21.20
2018-07-28T18:01:35.738Z,21.20
2018-07-28T18:04:03.996Z,21.10
2018-07-28T18:06:32.254Z,21.10
2018-07-28T18:09:00.520Z,21.10
2018-07-28T18:11:28.950Z,21.00
2018-07-28T18:13:57.205Z,21.00
2018-07-28T18:16:25.434Z,21.00
2018-07-28T18:18:53.742Z,20.90
2018-07-28T18:23:50.059Z,20.90
2018-07-28T18:26:18.333Z,20.90
2018-07-28T18:28:46.583Z,20.90
2018-07-28T18:31:14.860Z,20.90
2018-07-28T18:33:43.181Z,20.90
2018-07-28T18:36:11.465Z,20.90
2018-07-28T18:38:39.737Z,20.90
2018-07-28T18:41:08.009Z,20.90
2018-07-28T18:46:10.812Z,20.90
2018-07-28T18:48:39.081Z,20.90
2018-07-28T18:51:07.408Z,20.80
2018-07-28T18:53:36.509Z,20.80
2018-07-28T18:56:04.821Z,20.80
2018-07-28T18:58:33.163Z,20.70
2018-07-28T19:01:01.428Z,20.70
2018-07-28T19:03:29.770Z,20.70
2018-07-28T19:05:58.001Z,20.60
2018-07-28T19:08:26.323Z,20.60
2018-07-28T19:10:54.616Z,20.50
2018-07-28T19:13:28.285Z,20.50
2018-07-28T19:15:56.906Z,20.50
2018-07-28T19:18:31.657Z,20.50
2018-07-28T19:20:59.925Z,20.40
2018-07-28T19:23:33.493Z,20.40
2018-07-28T19:26:01.761Z,20.30
2018-07-28T19:28:35.317Z,20.30
2018-07-28T19:31:03.699Z,20.30
2018-07-28T19:33:31.925Z,20.30
2018-07-28T19:38:12.286Z,20.30
2018-07-28T19:40:40.556Z,20.30
2018-07-28T19:43:08.932Z,20.30
2018-07-28T19:45:37.189Z,20.30
2018-07-28T19:48:05.438Z,20.30
2018-07-28T19:50:33.698Z,20.30
2018-07-28T19:53:02.348Z,20.20
2018-07-28T19:55:30.687Z,20.30
2018-07-28T19:57:58.917Z,20.30
2018-07-28T20:00:27.332Z,20.20
2018-07-28T20:02:55.610Z,20.30
2018-07-28T20:05:24.308Z,20.20
2018-07-28T20:07:52.592Z,20.20
2018-07-28T20:10:20.852Z,20.30
2018-07-28T20:15:17.140Z,20.30
2018-07-28T20:17:45.420Z,20.30
2018-07-28T20:20:13.912Z,20.30
2018-07-28T20:22:42.233Z,20.30
2018-07-28T20:25:10.549Z,20.30
2018-07-28T20:27:38.820Z,20.30
2018-07-28T20:30:07.084Z,20.30
2018-07-28T20:32:35.493Z,20.30
2018-07-28T20:35:03.830Z,20.30
2018-07-28T20:37:32.106Z,20.30
2018-07-28T20:40:00.357Z,20.30
2018-07-28T20:42:28.613Z,20.30
2018-07-28T20:44:56.856Z,20.30
2018-07-28T20:47:25.204Z,20.30
2018-07-28T20:49:53.396Z,20.30
2018-07-28T20:52:21.652Z,20.20
2018-07-28T20:54:49.901Z,20.20
2018-07-28T20:57:18.140Z,20.10
2018-07-28T20:59:46.443Z,20.00
2018-07-28T21:02:14.665Z,20.00
2018-07-28T21:04:42.889Z,19.90
2018-07-28T21:07:11.397Z,19.80
2018-07-28T21:09:39.642Z,19.70
2018-07-28T21:12:08.119Z,19.60
2018-07-28T21:14:36.368Z,19.50
2018-07-28T21:17:04.637Z,19.40
2018-07-28T21:19:32.867Z,19.40
2018-07-28T21:22:01.448Z,19.30
2018-07-28T21:24:29.710Z,19.30
2018-07-28T21:26:57.964Z,19.30
2018-07-28T21:29:26.367Z,19.20
2018-07-28T21:31:54.646Z,19.20
2018-07-28T21:34:22.901Z,19.10
2018-07-28T21:36:51.152Z,19.10
2018-07-28T21:39:19.468Z,19.10
2018-07-28T21:41:47.764Z,19.00
2018-07-28T21:44:16.009Z,19.00
2018-07-28T21:46:44.249Z,19.00
2018-07-28T21:49:12.529Z,19.00
2018-07-28T21:51:40.785Z,18.90
2018-07-28T21:54:09.145Z,18.90
2018-07-28T21:56:37.397Z,18.90
2018-07-28T21:59:05.659Z,18.90
2018-07-28T22:01:33.917Z,18.80
2018-07-28T22:04:03.046Z,18.80
2018-07-28T22:06:32.737Z,18.80
2018-07-28T22:09:00.966Z,18.80
2018-07-28T22:11:29.217Z,18.80
2018-07-28T22:13:57.460Z,18.80
2018-07-28T22:16:26.359Z,18.80
2018-07-28T22:18:54.713Z,18.80
2018-07-28T22:21:22.992Z,18.80
2018-07-28T22:23:51.226Z,18.80
2018-07-28T22:28:47.440Z,18.80
2018-07-28T22:31:15.701Z,18.70
2018-07-28T22:33:44.342Z,18.70
2018-07-28T22:36:14.100Z,18.70
2018-07-28T22:38:45.828Z,18.70
2018-07-28T22:41:14.076Z,18.70
2018-07-28T22:43:42.341Z,18.70
2018-07-28T22:46:10.611Z,18.70
2018-07-28T22:48:38.845Z,18.70
2018-07-28T22:51:07.105Z,18.70
2018-07-28T22:53:35.349Z,18.70
2018-07-28T22:56:06.097Z,18.70
2018-07-28T22:58:34.330Z,18.70
2018-07-28T23:01:02.650Z,18.70
2018-07-28T23:03:30.925Z,18.70
2018-07-28T23:05:59.161Z,18.70
2018-07-28T23:08:27.448Z,18.60
2018-07-28T23:10:55.720Z,18.60
2018-07-28T23:13:24.004Z,18.60
2018-07-28T23:15:52.293Z,18.60
2018-07-28T23:18:20.517Z,18.60
2018-07-28T23:20:48.794Z,18.60
2018-07-28T23:23:17.080Z,18.60
2018-07-28T23:25:45.384Z,18.60
2018-07-28T23:28:13.636Z,18.60
2018-07-28T23:30:41.902Z,18.60
2018-07-28T23:33:10.133Z,18.60
2018-07-28T23:35:38.437Z,18.60
2018-07-28T23:38:06.730Z,18.60
2018-07-28T23:40:34.985Z,18.60
2018-07-28T23:43:03.268Z,18.50
2018-07-28T23:47:59.532Z,18.50
2018-07-28T23:50:27.862Z,18.50
2018-07-28T23:52:56.092Z,18.50
2018-07-28T23:55:24.344Z,18.50
2018-07-28T23:57:52.593Z,18.50
